Ortigueira, Brazil
Current Conditions -  °F | °C
As of 3:00 PM on Thursday 30 Oct 2014 (Local Time) from SBLO Reporting Station
Scattered Clouds Scattered Clouds  
Wind Chill: 100°   Ceiling: Unl
Heat Index: 100°   Visibility: 6mi
Dew Point: 54°   Wind: 14mph
Humidity: 21%   Direction: 320°NW
Pressure: 29.8"   Gusts: NA
Location:  24.21°S, 50.95°W
Report Text: SBLO 301700Z 32012KT 9999 SCT040 38/12 Q1009
Loading
Personal Weather Stations






























Interactive Weather Map
Tropical Storm Tracking
New forecast layout! Learn more

10-Day Weather Forecast

Advertisements
Track Severe Weather on mobile